Time;durP1;ratioP1;P1;durP2;ratioP2;P2;SDS_P1;SDS_P2;PMS_P1;PMS_P2;Temp;Humidity;BMP_temperature;BMP_pressure;BME280_temperature;BME280_humidity;BME280_pressure;Samples;Min_cycle;Max_cycle;Signal;HPM_P1;HPM_P2
2023/12/28 00:02:07;;;;;;;1.60;1.00;;;8.90;99.90;;;;;;4992509;28;20056;-75
2023/12/28 00:04:34;;;;;;;3.60;1.48;;;8.90;99.90;;;;;;4977785;28;20102;-76
2023/12/28 00:07:02;;;;;;;3.38;1.23;;;9.00;99.90;;;;;;5022704;28;20513;-75
2023/12/28 00:09:27;;;;;;;2.13;1.35;;;9.00;99.90;;;;;;5015500;28;20409;-76
2023/12/28 00:11:53;;;;;;;1.67;1.10;;;9.00;99.90;;;;;;4977141;28;20066;-75
2023/12/28 00:14:19;;;;;;;2.20;1.38;;;9.00;99.90;;;;;;4998391;28;20054;-75
2023/12/28 00:16:44;;;;;;;3.75;1.35;;;9.00;99.90;;;;;;5013007;28;20056;-76
2023/12/28 00:19:10;;;;;;;2.30;1.33;;;9.10;99.90;;;;;;5000809;28;20529;-75
2023/12/28 00:21:36;;;;;;;2.20;1.50;;;9.10;99.90;;;;;;5031169;28;20067;-75
2023/12/28 00:24:02;;;;;;;1.95;1.38;;;9.10;99.90;;;;;;4978073;28;20129;-76
2023/12/28 00:26:28;;;;;;;2.85;1.58;;;9.10;99.90;;;;;;4983122;28;20064;-75
2023/12/28 00:28:54;;;;;;;2.22;1.60;;;9.10;99.90;;;;;;5058925;28;20115;-75
2023/12/28 00:31:20;;;;;;;2.30;1.30;;;9.10;99.90;;;;;;4982444;28;20151;-76
2023/12/28 00:33:45;;;;;;;3.60;1.27;;;9.10;99.90;;;;;;5015403;28;20041;-75
2023/12/28 00:36:11;;;;;;;4.45;1.27;;;9.10;99.90;;;;;;5030836;28;20030;-76
2023/12/28 00:38:37;;;;;;;2.55;1.35;;;9.10;99.90;;;;;;5067613;28;20040;-75
2023/12/28 00:41:02;;;;;;;4.57;2.00;;;9.10;99.90;;;;;;5003531;28;20091;-75
2023/12/28 00:43:28;;;;;;;2.00;1.15;;;9.10;99.90;;;;;;4977944;28;20054;-75
2023/12/28 00:45:54;;;;;;;2.80;1.02;;;9.10;99.90;;;;;;5007986;28;20575;-75
2023/12/28 00:48:19;;;;;;;2.75;1.48;;;9.10;99.90;;;;;;4978212;28;20058;-75
2023/12/28 00:50:45;;;;;;;2.72;1.27;;;9.00;99.90;;;;;;4978506;28;20456;-75
2023/12/28 00:53:11;;;;;;;3.70;1.50;;;9.00;99.90;;;;;;4959117;28;20030;-75
2023/12/28 00:55:36;;;;;;;4.18;1.30;;;9.00;99.90;;;;;;5010307;28;20046;-75
2023/12/28 00:58:02;;;;;;;2.35;1.77;;;8.90;99.90;;;;;;4977606;28;20050;-75
2023/12/28 01:00:28;;;;;;;6.60;1.85;;;8.90;99.90;;;;;;4993449;28;20122;-75
2023/12/28 01:02:54;;;;;;;1.20;0.90;;;8.90;99.90;;;;;;4978886;28;20112;-75
2023/12/28 01:05:21;;;;;;;2.88;1.10;;;8.90;99.90;;;;;;5011064;28;20054;-75
2023/12/28 01:07:47;;;;;;;4.05;1.67;;;8.80;99.90;;;;;;4990571;28;20676;-75
2023/12/28 01:10:13;;;;;;;5.75;2.00;;;8.80;99.90;;;;;;4978406;28;20049;-75
2023/12/28 01:12:38;;;;;;;2.00;1.25;;;8.80;99.90;;;;;;4990148;28;20048;-76
2023/12/28 01:15:04;;;;;;;2.58;1.45;;;8.80;99.90;;;;;;5018525;28;20037;-75
2023/12/28 01:17:30;;;;;;;3.47;2.05;;;8.80;99.90;;;;;;5001186;28;20072;-76
2023/12/28 01:19:56;;;;;;;3.63;2.05;;;8.70;99.90;;;;;;4991791;28;20050;-75
2023/12/28 01:22:21;;;;;;;2.80;1.42;;;8.70;99.90;;;;;;4993677;28;20046;-76
2023/12/28 01:24:49;;;;;;;2.35;1.50;;;8.60;99.90;;;;;;5008647;28;20113;-75
2023/12/28 01:27:15;;;;;;;3.50;1.15;;;8.70;99.90;;;;;;5008551;28;20050;-75
2023/12/28 01:29:41;;;;;;;1.30;1.05;;;8.60;99.90;;;;;;4992212;28;20518;-75
2023/12/28 01:32:06;;;;;;;2.25;1.08;;;8.60;99.90;;;;;;4977468;28;20045;-75
2023/12/28 01:34:32;;;;;;;2.20;1.30;;;8.70;99.90;;;;;;4994633;28;20041;-75
2023/12/28 01:36:58;;;;;;;2.15;1.73;;;8.70;99.90;;;;;;4992431;28;20052;-75
2023/12/28 01:39:23;;;;;;;5.60;1.33;;;8.60;99.90;;;;;;4994075;28;20167;-76
2023/12/28 01:41:49;;;;;;;4.25;1.60;;;8.70;99.90;;;;;;4975423;28;20540;-75
2023/12/28 01:44:15;;;;;;;9.38;1.52;;;8.60;99.90;;;;;;4978792;28;20188;-75
2023/12/28 01:46:42;;;;;;;3.92;1.52;;;8.60;99.90;;;;;;4992014;28;20068;-76
2023/12/28 01:49:07;;;;;;;5.88;1.27;;;8.60;99.90;;;;;;4993589;28;20046;-76
2023/12/28 01:51:34;;;;;;;3.15;0.77;;;8.60;99.90;;;;;;4990721;28;20052;-75
2023/12/28 01:54:00;;;;;;;9.10;1.85;;;8.70;99.90;;;;;;4993588;28;20034;-75
2023/12/28 01:56:26;;;;;;;4.50;1.25;;;8.80;99.90;;;;;;4993651;28;20046;-75
2023/12/28 01:58:53;;;;;;;2.38;1.40;;;8.80;99.90;;;;;;4975525;28;20038;-75
2023/12/28 02:01:19;;;;;;;5.22;1.63;;;8.80;99.90;;;;;;4993524;28;20045;-75
2023/12/28 02:03:46;;;;;;;4.10;1.55;;;8.90;99.90;;;;;;4979023;28;20038;-75
2023/12/28 02:06:15;;;;;;;3.05;1.52;;;9.00;99.90;;;;;;4988985;28;20038;-75
2023/12/28 02:08:41;;;;;;;4.43;1.40;;;9.10;99.90;;;;;;4990663;28;20050;-75
2023/12/28 02:11:07;;;;;;;2.00;1.20;;;9.10;99.90;;;;;;5001188;28;20053;-75
2023/12/28 02:13:33;;;;;;;1.63;1.30;;;9.20;99.90;;;;;;4991040;28;20054;-75
2023/12/28 02:16:06;;;;;;;7.70;1.65;;;9.20;99.90;;;;;;5026409;28;20055;-75
2023/12/28 02:18:42;;;;;;;5.65;1.25;;;9.20;99.90;;;;;;5036192;28;20123;-75
2023/12/28 02:21:09;;;;;;;1.90;1.00;;;9.20;99.90;;;;;;5040759;28;20036;-75
2023/12/28 02:23:34;;;;;;;1.88;1.30;;;9.30;99.90;;;;;;5005812;28;20422;-75
2023/12/28 02:26:01;;;;;;;11.05;1.95;;;9.30;99.90;;;;;;5015542;28;20038;-75
2023/12/28 02:28:26;;;;;;;3.10;1.92;;;9.30;99.90;;;;;;5017903;28;20433;-75
2023/12/28 02:30:52;;;;;;;1.85;1.17;;;9.40;99.90;;;;;;5017331;28;20046;-75
2023/12/28 02:33:41;;;;;;;7.53;1.25;;;9.30;99.90;;;;;;4996417;28;20049;-75
2023/12/28 02:36:18;;;;;;;7.05;1.20;;;9.40;99.90;;;;;;5002419;28;20049;-75
2023/12/28 02:38:45;;;;;;;10.77;1.67;;;9.40;99.90;;;;;;5022567;28;20518;-75
2023/12/28 02:41:12;;;;;;;4.10;1.10;;;9.40;99.90;;;;;;5017610;28;20038;-75
2023/12/28 02:43:38;;;;;;;3.35;1.02;;;9.30;99.90;;;;;;5035154;28;20085;-75
2023/12/28 02:46:03;;;;;;;2.22;1.13;;;9.40;99.90;;;;;;4997049;28;20149;-75
2023/12/28 02:48:30;;;;;;;5.32;1.48;;;9.40;99.90;;;;;;4995586;28;20110;-75
2023/12/28 02:50:55;;;;;;;4.90;2.15;;;9.40;99.90;;;;;;4989764;28;20077;-75
2023/12/28 02:53:21;;;;;;;6.70;2.15;;;9.60;99.90;;;;;;4978429;28;20394;-75
2023/12/28 02:55:47;;;;;;;3.65;1.52;;;9.60;99.90;;;;;;4984705;28;20071;-75
2023/12/28 02:58:12;;;;;;;5.05;1.52;;;9.70;99.90;;;;;;4958902;28;20045;-75
2023/12/28 03:00:38;;;;;;;5.97;1.83;;;9.80;99.90;;;;;;4974882;28;20042;-75
2023/12/28 03:03:04;;;;;;;5.60;1.27;;;9.70;99.90;;;;;;4977278;28;20148;-75
2023/12/28 03:05:29;;;;;;;5.50;1.27;;;9.80;99.90;;;;;;4978231;28;20041;-75
2023/12/28 03:07:55;;;;;;;3.63;1.45;;;9.80;99.90;;;;;;4973280;28;20030;-75
2023/12/28 03:10:21;;;;;;;8.20;1.45;;;9.80;99.90;;;;;;4975358;28;20080;-75
2023/12/28 03:12:47;;;;;;;3.20;1.05;;;9.80;99.90;;;;;;4975253;28;20038;-75
2023/12/28 03:15:13;;;;;;;3.92;2.15;;;9.80;99.90;;;;;;4976830;28;21364;-75
2023/12/28 03:17:39;;;;;;;3.38;1.50;;;9.80;99.90;;;;;;5004255;28;20057;-75
2023/12/28 03:20:05;;;;;;;2.05;1.30;;;9.70;99.90;;;;;;4964279;28;20051;-75
2023/12/28 03:22:31;;;;;;;3.40;1.40;;;9.80;99.90;;;;;;4990152;28;20071;-75
2023/12/28 03:24:56;;;;;;;3.08;1.15;;;9.70;99.90;;;;;;4975896;28;20038;-75
2023/12/28 03:27:22;;;;;;;2.10;1.27;;;9.80;99.90;;;;;;4990221;28;20038;-75
2023/12/28 03:29:48;;;;;;;3.75;1.40;;;9.80;99.90;;;;;;4987922;28;20054;-75
2023/12/28 03:32:14;;;;;;;4.35;1.70;;;9.80;99.90;;;;;;4992267;28;20050;-75
2023/12/28 03:34:40;;;;;;;5.22;1.30;;;9.80;99.90;;;;;;4989736;28;20659;-75
2023/12/28 03:37:05;;;;;;;5.55;1.40;;;9.80;99.90;;;;;;4998941;28;20069;-75
2023/12/28 03:39:31;;;;;;;2.17;1.20;;;9.80;99.90;;;;;;4994791;28;20081;-75
2023/12/28 03:41:57;;;;;;;3.65;1.52;;;9.80;99.90;;;;;;4988600;28;20030;-75
2023/12/28 03:44:23;;;;;;;6.75;1.63;;;9.80;99.90;;;;;;5008014;28;20042;-75
2023/12/28 03:46:49;;;;;;;4.38;0.90;;;9.80;99.90;;;;;;5006375;28;20658;-75
2023/12/28 03:49:19;;;;;;;5.05;1.10;;;9.80;99.90;;;;;;4975368;28;20383;-75
2023/12/28 03:51:45;;;;;;;2.38;1.05;;;9.80;99.90;;;;;;4982781;28;20049;-75
2023/12/28 03:54:11;;;;;;;2.38;1.20;;;9.80;99.90;;;;;;4989967;28;20046;-75
2023/12/28 03:56:39;;;;;;;2.42;1.50;;;9.80;99.90;;;;;;5008652;28;20042;-75
2023/12/28 03:59:06;;;;;;;9.00;1.35;;;9.80;99.90;;;;;;4989297;28;20045;-75
2023/12/28 04:01:32;;;;;;;5.97;1.05;;;9.90;99.90;;;;;;4991979;28;20142;-75
2023/12/28 04:03:58;;;;;;;2.97;1.10;;;9.90;99.90;;;;;;4988833;28;20069;-75
2023/12/28 04:06:24;;;;;;;5.05;0.93;;;9.90;99.90;;;;;;4986346;28;20056;-75
2023/12/28 04:08:49;;;;;;;2.33;1.20;;;9.90;99.90;;;;;;4990928;28;20494;-75
2023/12/28 04:11:15;;;;;;;2.88;0.98;;;9.90;99.90;;;;;;4991835;28;20076;-75
2023/12/28 04:13:41;;;;;;;1.45;0.82;;;9.90;99.90;;;;;;4990818;28;20066;-75
2023/12/28 04:16:07;;;;;;;1.98;0.70;;;9.90;99.90;;;;;;4998042;28;20040;-75
2023/12/28 04:18:33;;;;;;;3.20;0.93;;;9.90;99.90;;;;;;4986774;28;20028;-75
2023/12/28 04:20:58;;;;;;;3.65;0.93;;;9.80;99.90;;;;;;5081413;28;20218;-75
2023/12/28 04:23:25;;;;;;;3.25;0.85;;;9.90;99.90;;;;;;4998003;28;20057;-75
2023/12/28 04:25:50;;;;;;;5.20;1.67;;;9.90;99.90;;;;;;4988620;28;20054;-75
2023/12/28 04:28:16;;;;;;;3.63;0.90;;;9.90;99.90;;;;;;4992542;28;20056;-75
2023/12/28 04:30:42;;;;;;;2.63;0.80;;;9.90;99.90;;;;;;4989932;28;20046;-75
2023/12/28 04:33:09;;;;;;;3.38;1.40;;;9.90;99.90;;;;;;4972118;28;20051;-75
2023/12/28 04:35:34;;;;;;;7.93;1.35;;;9.90;99.90;;;;;;4989345;28;20527;-75
2023/12/28 04:38:00;;;;;;;2.00;0.70;;;9.90;99.90;;;;;;4990489;28;20058;-75
2023/12/28 04:40:26;;;;;;;6.57;1.35;;;9.90;99.90;;;;;;4974925;28;20056;-75
2023/12/28 04:42:51;;;;;;;5.43;0.85;;;10.00;99.90;;;;;;4994183;28;20072;-75
2023/12/28 04:45:17;;;;;;;10.20;1.60;;;10.10;99.90;;;;;;4994305;28;20137;-75
2023/12/28 04:47:43;;;;;;;4.10;0.95;;;10.10;99.90;;;;;;4992859;28;20053;-75
2023/12/28 04:50:09;;;;;;;3.08;0.77;;;10.20;99.90;;;;;;4978016;28;20057;-75
2023/12/28 04:52:34;;;;;;;2.83;0.90;;;10.20;99.90;;;;;;4993441;28;20041;-75
2023/12/28 04:55:00;;;;;;;9.35;1.48;;;10.20;99.90;;;;;;4994908;28;20049;-75
2023/12/28 04:57:27;;;;;;;8.50;1.48;;;10.10;99.90;;;;;;4994011;28;20487;-75
2023/12/28 04:59:54;;;;;;;6.45;1.38;;;10.10;99.90;;;;;;5078217;28;20050;-74
2023/12/28 05:02:19;;;;;;;2.92;0.75;;;10.10;99.90;;;;;;5010649;28;20038;-75
2023/12/28 05:04:45;;;;;;;6.07;0.88;;;10.20;99.90;;;;;;4992666;28;20045;-75
2023/12/28 05:07:11;;;;;;;6.30;1.73;;;10.20;99.90;;;;;;4994770;28;20045;-75
2023/12/28 05:09:36;;;;;;;11.93;1.35;;;10.20;99.90;;;;;;5079516;28;20049;-75
2023/12/28 05:12:02;;;;;;;10.63;1.25;;;10.20;99.90;;;;;;4958611;28;20042;-75
2023/12/28 05:14:28;;;;;;;3.40;1.63;;;10.20;99.90;;;;;;4995011;28;20136;-75
2023/12/28 05:16:54;;;;;;;2.60;0.88;;;10.30;99.90;;;;;;4994181;28;20071;-75
2023/12/28 05:19:20;;;;;;;3.50;1.15;;;10.30;99.90;;;;;;4985556;28;20071;-75
2023/12/28 05:21:46;;;;;;;9.60;1.17;;;10.30;99.90;;;;;;4976128;28;20038;-75
2023/12/28 05:24:12;;;;;;;4.03;2.25;;;10.40;99.90;;;;;;4994498;28;20052;-75
2023/12/28 05:26:38;;;;;;;6.30;1.27;;;10.40;99.90;;;;;;4994345;28;20042;-74
2023/12/28 05:29:04;;;;;;;4.80;0.75;;;10.40;99.90;;;;;;4982171;28;20073;-75
2023/12/28 05:31:29;;;;;;;4.60;0.95;;;10.40;99.90;;;;;;4996612;28;20076;-75
2023/12/28 05:33:56;;;;;;;4.55;0.93;;;10.40;99.90;;;;;;4979162;28;20596;-75
2023/12/28 05:36:22;;;;;;;6.93;1.73;;;10.40;99.90;;;;;;4993577;28;20038;-75
2023/12/28 05:38:48;;;;;;;5.93;1.20;;;10.50;99.90;;;;;;4977197;28;20104;-75
2023/12/28 05:41:14;;;;;;;2.63;1.10;;;10.50;99.90;;;;;;4994602;28;20049;-75
2023/12/28 05:43:39;;;;;;;3.20;1.02;;;10.50;99.90;;;;;;5009001;28;20063;-75
2023/12/28 05:46:05;;;;;;;9.90;1.92;;;10.40;99.90;;;;;;4994519;28;20046;-75
2023/12/28 05:48:31;;;;;;;8.63;1.00;;;10.40;99.90;;;;;;4994934;28;20057;-75
2023/12/28 05:51:00;;;;;;;8.90;1.20;;;10.40;99.90;;;;;;4992518;28;20094;-75
2023/12/28 05:53:26;;;;;;;3.58;0.90;;;10.50;99.90;;;;;;4991596;28;20122;-75
2023/12/28 05:55:52;;;;;;;16.58;1.48;;;10.50;99.90;;;;;;4977831;28;20064;-75
2023/12/28 05:58:18;;;;;;;7.90;1.98;;;10.50;99.90;;;;;;4995446;28;20729;-75
2023/12/28 06:00:46;;;;;;;2.08;1.08;;;10.50;99.90;;;;;;5007115;28;20060;-75
2023/12/28 06:03:12;;;;;;;3.70;1.02;;;10.50;99.90;;;;;;5077941;28;20050;-75
2023/12/28 06:05:37;;;;;;;4.72;1.63;;;10.50;99.90;;;;;;4991776;28;20053;-75
2023/12/28 06:08:04;;;;;;;3.97;0.80;;;10.50;99.90;;;;;;4977537;28;20073;-75
2023/12/28 06:10:29;;;;;;;4.28;1.13;;;10.50;99.90;;;;;;5044940;28;20079;-75
2023/12/28 06:12:55;;;;;;;6.63;1.08;;;10.50;99.90;;;;;;5007438;28;20046;-75
2023/12/28 06:15:21;;;;;;;4.05;1.08;;;10.50;99.90;;;;;;4993176;28;20080;-75
2023/12/28 06:17:46;;;;;;;6.22;1.02;;;10.50;99.90;;;;;;4998745;28;20046;-75
2023/12/28 06:20:12;;;;;;;2.13;0.75;;;10.50;99.90;;;;;;4966836;28;20034;-75
2023/12/28 06:22:38;;;;;;;6.97;1.10;;;10.50;99.90;;;;;;4982571;28;20038;-75
2023/12/28 06:25:04;;;;;;;4.30;1.15;;;10.50;99.90;;;;;;4998274;28;20510;-75
2023/12/28 06:27:30;;;;;;;5.32;0.93;;;10.50;99.90;;;;;;5017362;28;20053;-75
2023/12/28 06:29:56;;;;;;;8.13;0.73;;;10.50;99.90;;;;;;4981717;28;20060;-75
2023/12/28 06:32:22;;;;;;;11.73;1.60;;;10.50;99.90;;;;;;4967088;28;20263;-75
2023/12/28 06:34:48;;;;;;;9.68;1.40;;;10.50;99.90;;;;;;5014105;28;20065;-75
2023/12/28 06:37:14;;;;;;;3.88;1.15;;;10.50;99.90;;;;;;4981060;28;20052;-75
2023/12/28 06:39:40;;;;;;;8.10;1.48;;;10.50;99.90;;;;;;5084495;28;20050;-75
2023/12/28 06:42:05;;;;;;;8.50;1.58;;;10.60;99.90;;;;;;4998693;28;20109;-75
2023/12/28 06:44:31;;;;;;;6.68;1.02;;;10.60;99.90;;;;;;5016191;28;20101;-75
2023/12/28 06:46:58;;;;;;;7.32;1.45;;;10.60;99.90;;;;;;4980524;28;20053;-75
2023/12/28 06:49:24;;;;;;;7.20;1.13;;;10.60;99.90;;;;;;4999185;28;20053;-75
2023/12/28 06:51:50;;;;;;;4.43;1.27;;;10.60;99.90;;;;;;5008795;28;20057;-75
2023/12/28 06:54:16;;;;;;;8.32;1.00;;;10.60;99.90;;;;;;4977414;28;20050;-75
2023/12/28 06:56:42;;;;;;;9.20;1.30;;;10.60;99.90;;;;;;4977072;28;20087;-75
2023/12/28 06:59:12;;;;;;;5.10;0.90;;;10.60;99.90;;;;;;5008775;28;20037;-75
2023/12/28 07:01:41;;;;;;;4.22;1.20;;;10.70;99.90;;;;;;4993389;28;20049;-75
2023/12/28 07:04:07;;;;;;;8.38;1.15;;;10.70;99.90;;;;;;4990957;28;20487;-75
2023/12/28 07:06:33;;;;;;;8.65;1.48;;;10.70;99.90;;;;;;5008169;28;20104;-75
2023/12/28 07:08:59;;;;;;;2.70;0.88;;;10.70;99.90;;;;;;5008195;28;20120;-75
2023/12/28 07:11:26;;;;;;;4.65;2.05;;;10.80;99.90;;;;;;4977273;28;20134;-74
2023/12/28 07:13:53;;;;;;;4.75;1.45;;;10.80;99.90;;;;;;4994039;28;20077;-75
2023/12/28 07:16:19;;;;;;;13.10;1.48;;;10.80;99.90;;;;;;5007755;28;20041;-75
2023/12/28 07:18:44;;;;;;;9.88;1.27;;;10.80;99.90;;;;;;4987062;28;20099;-75
2023/12/28 07:21:11;;;;;;;7.05;1.27;;;10.80;99.90;;;;;;5009848;28;20142;-75
2023/12/28 07:23:37;;;;;;;10.75;1.15;;;10.70;99.90;;;;;;4985527;28;20046;-75
2023/12/28 07:26:03;;;;;;;4.90;1.42;;;10.80;99.90;;;;;;4972819;28;20062;-75
2023/12/28 07:28:29;;;;;;;2.28;1.00;;;10.80;99.90;;;;;;4992280;28;20042;-75
2023/12/28 07:30:54;;;;;;;9.30;0.70;;;10.80;99.90;;;;;;4990651;28;20122;-75
2023/12/28 07:33:20;;;;;;;2.75;1.08;;;10.80;99.90;;;;;;5007198;28;20058;-75
2023/12/28 07:35:46;;;;;;;8.48;1.08;;;10.90;99.90;;;;;;4994100;28;20042;-75
2023/12/28 07:38:12;;;;;;;4.78;1.17;;;10.80;99.90;;;;;;5006306;28;20038;-75
2023/12/28 07:40:38;;;;;;;2.60;1.55;;;10.90;99.90;;;;;;4990228;28;20061;-75
2023/12/28 07:43:04;;;;;;;2.72;1.20;;;10.90;99.90;;;;;;4994077;28;20056;-75
2023/12/28 07:45:30;;;;;;;4.70;1.05;;;10.90;99.90;;;;;;4991797;28;20038;-76
2023/12/28 07:47:56;;;;;;;14.00;1.98;;;10.80;99.90;;;;;;5006050;28;20054;-75
2023/12/28 07:50:22;;;;;;;9.25;1.38;;;10.80;99.90;;;;;;5006854;28;20045;-75
2023/12/28 07:52:48;;;;;;;9.25;1.30;;;10.90;99.90;;;;;;4990050;28;20067;-75
2023/12/28 07:55:14;;;;;;;15.38;1.83;;;10.90;99.90;;;;;;4990791;28;20483;-75
2023/12/28 07:57:40;;;;;;;5.85;1.25;;;10.90;99.90;;;;;;4989053;28;20038;-75
2023/12/28 08:00:06;;;;;;;6.82;0.80;;;10.90;99.90;;;;;;5033704;28;20041;-75
2023/12/28 08:02:33;;;;;;;1.13;0.68;;;11.00;99.90;;;;;;4973806;28;20172;-75
2023/12/28 08:04:59;;;;;;;6.93;0.93;;;11.00;99.90;;;;;;4985332;28;20479;-75
2023/12/28 08:07:24;;;;;;;9.43;1.85;;;10.90;99.90;;;;;;4985915;28;20407;-75
2023/12/28 08:09:50;;;;;;;17.40;2.05;;;10.90;99.90;;;;;;5025598;28;20058;-75
2023/12/28 08:12:17;;;;;;;13.93;1.67;;;10.90;99.90;;;;;;4980285;28;20042;-75
2023/12/28 08:14:43;;;;;;;10.48;1.75;;;11.00;99.90;;;;;;5046891;28;20540;-75
2023/12/28 08:17:09;;;;;;;10.32;2.47;;;11.00;99.90;;;;;;4974170;28;20052;-75
2023/12/28 08:19:35;;;;;;;21.95;2.20;;;11.00;99.90;;;;;;5001206;28;20037;-74
2023/12/28 08:22:02;;;;;;;5.45;1.02;;;11.00;99.90;;;;;;4977158;28;20071;-75
2023/12/28 08:24:28;;;;;;;9.85;1.98;;;11.00;99.90;;;;;;4994196;28;20477;-75
2023/12/28 08:26:54;;;;;;;3.42;0.98;;;11.00;99.90;;;;;;5052050;28;20038;-75
2023/12/28 08:29:20;;;;;;;7.43;2.28;;;11.00;99.90;;;;;;5000226;28;20478;-75
2023/12/28 08:31:45;;;;;;;15.43;2.15;;;10.90;99.90;;;;;;4968405;28;20060;-74
2023/12/28 08:34:11;;;;;;;13.50;1.48;;;10.90;99.90;;;;;;4967703;28;20079;-75
2023/12/28 08:36:37;;;;;;;13.45;1.95;;;10.90;99.90;;;;;;5000990;28;20110;-75
2023/12/28 08:39:03;;;;;;;29.02;2.97;;;10.90;99.90;;;;;;4982729;28;20124;-74
2023/12/28 08:41:29;;;;;;;6.22;1.40;;;10.90;99.90;;;;;;4981664;28;20137;-75
2023/12/28 08:43:55;;;;;;;7.15;1.63;;;10.90;99.90;;;;;;4979053;28;20073;-74
2023/12/28 08:46:27;;;;;;;9.82;1.70;;;10.90;99.90;;;;;;4990913;28;20082;-74
2023/12/28 08:48:52;;;;;;;11.00;0.93;;;11.00;99.90;;;;;;5007701;28;20124;-74
2023/12/28 08:51:18;;;;;;;9.65;1.45;;;10.90;99.90;;;;;;4965978;28;20045;-74
2023/12/28 08:53:44;;;;;;;7.18;1.83;;;10.90;99.90;;;;;;5006670;28;20191;-74
2023/12/28 08:56:17;;;;;;;5.80;1.48;;;11.00;99.90;;;;;;5000202;28;20056;-74
2023/12/28 08:58:44;;;;;;;6.30;2.00;;;11.00;99.90;;;;;;5085668;28;20042;-74
2023/12/28 09:01:17;;;;;;;11.65;2.00;;;11.00;99.90;;;;;;5068238;28;20050;-74
2023/12/28 09:03:43;;;;;;;12.07;1.88;;;11.00;99.90;;;;;;5012730;28;20116;-74
2023/12/28 09:06:08;;;;;;;8.60;1.25;;;11.00;99.90;;;;;;4998385;28;20064;-74
2023/12/28 09:08:34;;;;;;;18.02;2.08;;;11.00;99.90;;;;;;5002098;28;20064;-74
2023/12/28 09:11:00;;;;;;;9.35;1.67;;;11.10;99.90;;;;;;4981696;28;20046;-74
2023/12/28 09:13:26;;;;;;;4.22;1.05;;;11.00;99.90;;;;;;4978437;28;20061;-74
2023/12/28 09:15:51;;;;;;;14.10;3.22;;;11.00;99.90;;;;;;5000758;28;20466;-74
2023/12/28 09:18:17;;;;;;;13.65;1.70;;;11.00;99.90;;;;;;5007183;28;20054;-74
2023/12/28 09:20:43;;;;;;;8.68;1.35;;;11.00;99.90;;;;;;4974989;28;20041;-74
2023/12/28 09:23:10;;;;;;;9.95;1.50;;;11.00;99.90;;;;;;4986482;28;20111;-74
2023/12/28 09:25:38;;;;;;;5.25;1.02;;;11.00;99.90;;;;;;4993454;28;20084;-74
2023/12/28 09:28:05;;;;;;;4.07;1.20;;;11.00;99.90;;;;;;4998247;28;20042;-73
2023/12/28 09:30:31;;;;;;;5.10;0.80;;;11.00;99.90;;;;;;5050267;28;20132;-74
2023/12/28 09:32:56;;;;;;;10.23;1.65;;;11.10;99.90;;;;;;4982733;28;20115;-74
2023/12/28 09:35:22;;;;;;;6.05;1.15;;;11.10;99.90;;;;;;4980165;28;20043;-74
2023/12/28 09:37:48;;;;;;;8.50;1.25;;;11.10;99.90;;;;;;4972953;28;20133;-74
2023/12/28 09:40:15;;;;;;;5.47;0.90;;;11.10;99.90;;;;;;5009529;28;20038;-74
2023/12/28 09:42:48;;;;;;;8.32;1.70;;;11.20;99.90;;;;;;5014308;28;20098;-74
2023/12/28 09:45:14;;;;;;;7.93;1.77;;;11.20;99.90;;;;;;4993172;28;20050;-75
2023/12/28 09:47:42;;;;;;;16.30;1.70;;;11.10;99.90;;;;;;4959444;28;20038;-74
2023/12/28 09:50:09;;;;;;;12.13;1.40;;;11.20;99.90;;;;;;4984820;28;20038;-73
2023/12/28 09:52:34;;;;;;;3.33;1.02;;;11.10;99.90;;;;;;4998962;28;20061;-74
2023/12/28 09:55:00;;;;;;;4.95;1.13;;;11.10;99.90;;;;;;4978895;28;20098;-74
2023/12/28 09:57:26;;;;;;;7.60;1.30;;;11.20;99.90;;;;;;4996849;28;20049;-74
2023/12/28 09:59:52;;;;;;;8.60;1.10;;;11.20;99.90;;;;;;5006185;28;20102;-74
2023/12/28 10:02:18;;;;;;;14.15;2.13;;;11.20;99.90;;;;;;5011256;28;20045;-74
2023/12/28 10:04:44;;;;;;;5.25;2.17;;;11.20;99.90;;;;;;5059947;28;20042;-74
2023/12/28 10:07:10;;;;;;;7.53;1.63;;;11.20;99.90;;;;;;5005537;28;20052;-73
2023/12/28 10:09:35;;;;;;;10.75;1.48;;;11.20;99.90;;;;;;4999128;28;20049;-73
2023/12/28 10:12:03;;;;;;;4.47;1.88;;;11.20;99.90;;;;;;4982229;28;20053;-73
2023/12/28 10:14:29;;;;;;;11.93;1.40;;;11.20;99.90;;;;;;5000594;28;20071;-73
2023/12/28 10:16:55;;;;;;;15.57;1.98;;;11.20;99.90;;;;;;4998538;28;20042;-74
2023/12/28 10:19:23;;;;;;;5.65;1.42;;;11.20;99.90;;;;;;4999410;28;20532;-74
2023/12/28 10:21:49;;;;;;;6.35;1.15;;;11.20;99.90;;;;;;4979892;28;20050;-74
2023/12/28 10:24:15;;;;;;;4.72;1.63;;;11.20;99.90;;;;;;4982107;28;20038;-73
2023/12/28 10:26:40;;;;;;;6.03;1.60;;;11.20;99.90;;;;;;4997775;28;20049;-73
2023/12/28 10:29:06;;;;;;;26.13;3.00;;;11.20;99.90;;;;;;4988031;28;20101;-73
2023/12/28 10:31:32;;;;;;;8.13;1.23;;;11.20;99.90;;;;;;5001321;28;20077;-73
2023/12/28 10:34:02;;;;;;;7.20;1.58;;;11.10;99.90;;;;;;5022458;28;20542;-74
2023/12/28 10:36:28;;;;;;;2.40;0.65;;;11.20;99.90;;;;;;5006972;28;20046;-74
2023/12/28 10:38:56;;;;;;;14.38;1.40;;;11.20;99.90;;;;;;4975644;28;20091;-73
2023/12/28 10:41:23;;;;;;;8.45;1.27;;;11.20;99.90;;;;;;4990210;28;20076;-73
2023/12/28 10:44:04;;;;;;;8.38;1.27;;;11.10;99.90;;;;;;5009647;28;20210;-73
2023/12/28 10:46:32;;;;;;;6.10;1.07;;;11.10;99.90;;;;;;4988218;28;20053;-73
2023/12/28 10:49:07;;;;;;;7.68;1.30;;;11.20;99.90;;;;;;4999970;28;20042;-73
2023/12/28 10:51:36;;;;;;;14.60;2.47;;;11.10;99.90;;;;;;4992890;28;20090;-73
2023/12/28 10:54:23;;;;;;;10.10;1.30;;;11.10;99.90;;;;;;5007887;28;20083;-74
2023/12/28 10:57:11;;;;;;;9.88;1.63;;;11.10;99.90;;;;;;4991402;28;20048;-74
2023/12/28 10:59:46;;;;;;;7.93;1.17;;;11.20;99.90;;;;;;4982040;28;20100;-73
2023/12/28 11:02:21;;;;;;;9.10;1.77;;;11.10;99.90;;;;;;5013681;28;20033;-73
2023/12/28 11:04:49;;;;;;;30.05;2.67;;;11.20;99.90;;;;;;5014235;28;20067;-73
2023/12/28 11:07:18;;;;;;;17.95;1.58;;;11.20;99.90;;;;;;4994628;28;20038;-74
2023/12/28 11:09:44;;;;;;;7.00;1.75;;;11.20;99.90;;;;;;4998908;28;20042;-73
2023/12/28 11:12:11;;;;;;;3.60;1.10;;;11.20;99.90;;;;;;5008410;28;20928;-73
2023/12/28 11:14:41;;;;;;;4.90;1.13;;;11.20;99.90;;;;;;4960289;28;20048;-73
2023/12/28 11:17:07;;;;;;;1.55;1.00;;;11.30;99.90;;;;;;5011888;28;20053;-73
2023/12/28 11:19:34;;;;;;;8.05;1.65;;;11.30;99.90;;;;;;4978576;28;20140;-73
2023/12/28 11:22:03;;;;;;;15.25;1.98;;;11.30;99.90;;;;;;4977960;28;20046;-73
2023/12/28 11:24:29;;;;;;;4.82;1.40;;;11.30;99.90;;;;;;4991125;28;20066;-73
2023/12/28 11:26:55;;;;;;;7.75;1.45;;;11.30;99.90;;;;;;4998352;28;20094;-73
2023/12/28 11:29:22;;;;;;;16.15;2.40;;;11.40;99.90;;;;;;4997272;28;20508;-74
2023/12/28 11:31:58;;;;;;;5.63;1.95;;;11.30;99.90;;;;;;5012759;28;20414;-73
2023/12/28 11:34:33;;;;;;;12.30;1.60;;;11.30;99.90;;;;;;5018683;28;20046;-73
2023/12/28 11:37:13;;;;;;;11.27;1.83;;;11.30;99.90;;;;;;5017567;28;20111;-73
2023/12/28 11:39:43;;;;;;;8.73;1.02;;;11.30;99.90;;;;;;5006690;28;20042;-76
2023/12/28 11:42:10;;;;;;;14.50;1.50;;;11.30;99.90;;;;;;4966777;28;20111;-73
2023/12/28 11:44:46;;;;;;;6.00;1.70;;;11.30;99.90;;;;;;4975606;28;20069;-74
2023/12/28 11:47:20;;;;;;;7.25;0.75;;;11.30;99.90;;;;;;5013439;28;20056;-74
2023/12/28 11:49:47;;;;;;;4.55;1.33;;;11.30;99.90;;;;;;4982826;28;20065;-74
2023/12/28 11:52:24;;;;;;;13.93;1.75;;;11.20;99.90;;;;;;4988186;28;20045;-73
2023/12/28 11:54:50;;;;;;;11.30;1.52;;;11.20;99.90;;;;;;4985646;28;20177;-74
2023/12/28 11:57:16;;;;;;;7.93;1.20;;;11.20;99.90;;;;;;4981661;28;20115;-73
2023/12/28 11:59:42;;;;;;;8.30;1.30;;;11.30;99.90;;;;;;4998821;28;20042;-73
2023/12/28 12:02:08;;;;;;;18.67;1.92;;;11.20;99.90;;;;;;4994777;28;20038;-74
2023/12/28 12:04:34;;;;;;;13.07;1.33;;;11.20;99.90;;;;;;4979184;28;20045;-73
2023/12/28 12:07:04;;;;;;;10.85;1.60;;;11.20;99.90;;;;;;5016812;28;20038;-74
2023/12/28 12:09:34;;;;;;;8.05;1.65;;;11.20;99.90;;;;;;5017477;28;20059;-74
2023/12/28 12:12:03;;;;;;;9.93;1.75;;;11.20;99.90;;;;;;4999753;28;20049;-73
2023/12/28 12:14:30;;;;;;;7.57;1.60;;;11.20;99.90;;;;;;5016816;28;20073;-74
2023/12/28 12:16:57;;;;;;;2.88;1.30;;;11.20;99.90;;;;;;5016888;28;20502;-74
2023/12/28 12:19:23;;;;;;;9.70;1.83;;;11.20;99.90;;;;;;5000756;28;20251;-74
2023/12/28 12:21:49;;;;;;;11.95;1.90;;;11.30;99.90;;;;;;4989647;28;20053;-74
2023/12/28 12:24:18;;;;;;;5.25;1.27;;;11.20;99.90;;;;;;4989746;28;20054;-74
2023/12/28 12:26:45;;;;;;;14.15;1.95;;;11.30;99.90;;;;;;5001252;28;20070;-74
2023/12/28 12:29:10;;;;;;;19.02;2.47;;;11.30;99.90;;;;;;5016402;28;20084;-74
2023/12/28 12:31:39;;;;;;;10.50;2.47;;;11.30;99.90;;;;;;4982967;28;20050;-74
2023/12/28 12:34:06;;;;;;;4.38;1.02;;;11.30;99.90;;;;;;4983101;28;20062;-73
2023/12/28 12:36:31;;;;;;;17.75;2.63;;;11.30;99.90;;;;;;5000999;28;20068;-74
2023/12/28 12:38:57;;;;;;;11.63;1.55;;;11.20;99.90;;;;;;5005674;28;20050;-74
2023/12/28 12:41:23;;;;;;;18.65;1.38;;;11.30;99.90;;;;;;5016157;28;20556;-73
2023/12/28 12:43:49;;;;;;;10.20;1.55;;;11.30;99.90;;;;;;4982912;28;20053;-74
2023/12/28 12:46:14;;;;;;;10.65;2.35;;;11.20;99.90;;;;;;4966120;28;20048;-74